createdAt,value
2019-03-11T00:00:27.530Z,1.90
2019-03-11T00:03:01.133Z,2.00
2019-03-11T00:05:32.052Z,2.00
2019-03-11T00:08:03.009Z,2.00
2019-03-11T00:10:33.836Z,2.00
2019-03-11T00:13:06.006Z,2.00
2019-03-11T00:15:37.052Z,2.00
2019-03-11T00:18:07.995Z,2.00
2019-03-11T00:20:39.029Z,2.00
2019-03-11T00:23:11.171Z,2.00
2019-03-11T00:25:42.038Z,2.00
2019-03-11T00:28:12.943Z,2.00
2019-03-11T00:30:45.637Z,2.00
2019-03-11T00:33:17.714Z,2.00
2019-03-11T00:35:48.649Z,2.10
2019-03-11T00:38:19.587Z,2.00
2019-03-11T00:40:52.248Z,2.10
2019-03-11T00:43:23.104Z,2.10
2019-03-11T00:45:54.040Z,2.10
2019-03-11T00:48:24.982Z,2.10
2019-03-11T00:50:55.920Z,2.10
2019-03-11T00:53:26.860Z,2.10
2019-03-11T00:55:57.795Z,2.10
2019-03-11T00:58:28.715Z,2.10
2019-03-11T01:00:59.980Z,2.10
2019-03-11T01:03:30.786Z,2.10
2019-03-11T01:06:01.612Z,2.20
2019-03-11T01:08:32.481Z,2.10
2019-03-11T01:11:03.703Z,2.10
2019-03-11T01:13:34.869Z,2.10
2019-03-11T01:16:05.784Z,2.20
2019-03-11T01:18:37.644Z,2.10
2019-03-11T01:21:10.808Z,2.10
2019-03-11T01:23:41.697Z,2.10
2019-03-11T01:26:12.631Z,2.00
2019-03-11T01:28:43.573Z,1.90
2019-03-11T01:31:14.814Z,1.90
2019-03-11T01:33:45.763Z,1.70
2019-03-11T01:36:16.693Z,1.60
2019-03-11T01:38:47.632Z,1.60
2019-03-11T01:41:18.774Z,1.50
2019-03-11T01:43:49.708Z,1.50
2019-03-11T01:46:20.630Z,1.50
2019-03-11T01:48:51.585Z,1.50
2019-03-11T01:51:23.243Z,1.70
2019-03-11T01:53:55.237Z,1.70
2019-03-11T01:56:26.118Z,1.80
2019-03-11T01:58:57.062Z,1.80
2019-03-11T02:01:28.942Z,1.80
2019-03-11T02:03:59.879Z,1.80
2019-03-11T02:06:30.814Z,1.80
2019-03-11T02:09:01.751Z,1.80
2019-03-11T02:11:35.254Z,1.80
2019-03-11T02:14:06.127Z,1.80
2019-03-11T02:16:37.025Z,1.90
2019-03-11T02:19:07.964Z,1.90
2019-03-11T02:21:38.902Z,1.80
2019-03-11T02:24:09.838Z,1.90
2019-03-11T02:26:41.494Z,1.90
2019-03-11T02:29:12.431Z,1.90
2019-03-11T02:31:43.556Z,1.90
2019-03-11T02:34:14.511Z,1.90
2019-03-11T02:36:45.544Z,1.90
2019-03-11T02:39:16.490Z,1.90
2019-03-11T02:41:47.439Z,1.90
2019-03-11T02:44:18.376Z,1.90
2019-03-11T02:46:49.277Z,1.90
2019-03-11T02:49:20.244Z,1.90
2019-03-11T02:51:52.313Z,1.90
2019-03-11T02:54:23.247Z,1.90
2019-03-11T02:56:54.155Z,1.90
2019-03-11T02:59:25.091Z,1.90
2019-03-11T03:02:07.324Z,1.90
2019-03-11T03:04:39.801Z,2.00
2019-03-11T03:07:10.734Z,1.90
2019-03-11T03:09:41.678Z,1.90
2019-03-11T03:12:13.727Z,2.00
2019-03-11T03:14:44.679Z,1.90
2019-03-11T03:17:15.615Z,2.00
2019-03-11T03:19:46.401Z,2.00
2019-03-11T03:22:18.499Z,2.00
2019-03-11T03:24:49.450Z,2.00
2019-03-11T03:27:20.499Z,2.00
2019-03-11T03:29:51.428Z,2.00
2019-03-11T03:32:22.368Z,2.00
2019-03-11T03:34:54.201Z,2.00
2019-03-11T03:37:26.065Z,2.00
2019-03-11T03:39:57.028Z,2.00
2019-03-11T03:42:28.065Z,2.00
2019-03-11T03:45:21.537Z,2.00
2019-03-11T03:47:52.372Z,2.00
2019-03-11T03:50:29.977Z,2.00
2019-03-11T03:53:00.901Z,2.00
2019-03-11T03:55:31.839Z,2.00
2019-03-11T03:58:04.014Z,2.00
2019-03-11T04:00:35.030Z,2.00
2019-03-11T04:03:06.087Z,2.00
2019-03-11T04:05:36.924Z,2.10
2019-03-11T04:08:07.865Z,2.10
2019-03-11T04:10:38.798Z,2.10
2019-03-11T04:13:09.733Z,2.10
2019-03-11T04:15:41.980Z,2.20
2019-03-11T04:18:12.941Z,2.20
2019-03-11T04:20:43.885Z,2.20
2019-03-11T04:23:14.793Z,2.20
2019-03-11T04:25:45.742Z,2.20
2019-03-11T04:28:16.662Z,2.20
2019-03-11T04:30:47.632Z,2.20
2019-03-11T04:33:18.572Z,2.20
2019-03-11T04:35:49.510Z,2.20
2019-03-11T04:38:20.445Z,2.20
2019-03-11T04:40:51.467Z,2.20
2019-03-11T04:43:23.449Z,2.30
2019-03-11T04:45:55.308Z,2.30
2019-03-11T04:48:26.227Z,2.30
2019-03-11T04:50:57.079Z,2.30
2019-03-11T04:53:28.957Z,2.30
2019-03-11T04:56:01.847Z,2.30
2019-03-11T04:58:34.761Z,2.20
2019-03-11T05:01:07.051Z,2.20
2019-03-11T05:03:37.913Z,2.30
2019-03-11T05:06:09.878Z,2.20
2019-03-11T05:08:41.775Z,2.20
2019-03-11T05:11:12.778Z,2.10
2019-03-11T05:13:43.614Z,2.10
2019-03-11T05:16:15.561Z,2.10
2019-03-11T05:18:46.456Z,2.10
2019-03-11T05:21:17.433Z,2.10
2019-03-11T05:23:48.390Z,2.20
2019-03-11T05:26:21.023Z,2.20
2019-03-11T05:28:53.440Z,2.10
2019-03-11T05:31:24.272Z,2.00
2019-03-11T05:33:56.533Z,2.00
2019-03-11T05:36:27.685Z,2.00
2019-03-11T05:38:58.622Z,2.00
2019-03-11T05:41:30.174Z,1.90
2019-03-11T05:44:01.522Z,1.90
2019-03-11T05:46:32.367Z,1.80
2019-03-11T05:49:03.258Z,1.80
2019-03-11T05:51:34.239Z,1.80
2019-03-11T05:54:06.190Z,1.70
2019-03-11T05:56:37.137Z,1.70
2019-03-11T05:59:07.972Z,1.70
2019-03-11T06:01:38.910Z,1.70
2019-03-11T06:04:10.875Z,1.70
2019-03-11T06:06:41.725Z,1.70
2019-03-11T06:09:12.646Z,1.70
2019-03-11T06:11:43.586Z,1.70
2019-03-11T06:14:14.519Z,1.70
2019-03-11T06:16:45.430Z,1.80
2019-03-11T06:19:16.398Z,1.80
2019-03-11T06:21:48.844Z,1.80
2019-03-11T06:24:20.116Z,1.90
2019-03-11T06:26:51.261Z,1.90
2019-03-11T06:29:30.195Z,1.90
2019-03-11T06:31:54.776Z,2.00
2019-03-11T06:34:26.001Z,2.00
2019-03-11T06:36:56.958Z,2.00
2019-03-11T06:39:27.897Z,2.00
2019-03-11T06:41:58.833Z,2.10
2019-03-11T06:44:29.790Z,2.20
2019-03-11T06:47:00.786Z,2.40
2019-03-11T06:49:31.749Z,2.50
2019-03-11T06:52:03.774Z,2.70
2019-03-11T06:54:36.919Z,2.80
2019-03-11T06:57:07.711Z,2.80
2019-03-11T06:59:38.647Z,3.00
2019-03-11T07:02:11.047Z,3.10
2019-03-11T07:04:41.984Z,3.20
2019-03-11T07:07:12.924Z,3.30
2019-03-11T07:09:43.831Z,3.30
2019-03-11T07:12:15.721Z,3.30
2019-03-11T07:14:46.557Z,3.20
2019-03-11T07:17:17.495Z,3.10
2019-03-11T07:19:48.435Z,3.10
2019-03-11T07:22:19.358Z,3.20
2019-03-11T07:24:50.616Z,3.30
2019-03-11T07:27:21.851Z,3.30
2019-03-11T07:29:53.337Z,3.30
2019-03-11T07:32:24.741Z,3.30
2019-03-11T07:34:56.038Z,3.30
2019-03-11T07:37:27.159Z,3.30
2019-03-11T07:40:09.659Z,3.30
2019-03-11T07:42:44.452Z,3.30
2019-03-11T07:45:17.700Z,3.30
2019-03-11T07:47:49.028Z,3.40
2019-03-11T07:50:20.286Z,3.40
2019-03-11T07:52:52.505Z,3.40
2019-03-11T07:55:23.807Z,3.40
2019-03-11T07:57:55.425Z,3.40
2019-03-11T08:00:26.909Z,3.40
2019-03-11T08:02:58.683Z,3.40
2019-03-11T08:05:29.806Z,3.40
2019-03-11T08:08:01.231Z,3.40
2019-03-11T08:10:33.217Z,3.30
2019-03-11T08:13:07.865Z,3.40
2019-03-11T08:15:36.716Z,3.40
2019-03-11T08:18:07.664Z,3.40
2019-03-11T08:20:38.592Z,3.50
2019-03-11T08:23:09.734Z,3.60
2019-03-11T08:25:40.646Z,3.70
2019-03-11T08:28:11.695Z,3.90
2019-03-11T08:30:42.554Z,4.20
2019-03-11T08:33:13.903Z,4.30
2019-03-11T08:35:44.845Z,4.40
2019-03-11T08:38:15.982Z,4.60
2019-03-11T08:40:46.814Z,4.40
2019-03-11T08:43:17.753Z,4.20
2019-03-11T08:45:48.693Z,4.00
2019-03-11T08:48:19.625Z,4.00
2019-03-11T08:50:50.566Z,4.00
2019-03-11T08:53:22.606Z,4.40
2019-03-11T08:55:53.566Z,4.60
2019-03-11T08:58:24.503Z,4.70
2019-03-11T09:00:57.149Z,4.70
2019-03-11T09:03:30.511Z,4.90
2019-03-11T09:06:02.895Z,4.80
2019-03-11T09:08:33.892Z,4.70
2019-03-11T09:11:04.825Z,4.60
2019-03-11T09:13:36.779Z,4.60
2019-03-11T09:16:07.733Z,4.50
2019-03-11T09:18:39.692Z,4.50
2019-03-11T09:21:10.629Z,4.50
2019-03-11T09:23:41.771Z,4.50
2019-03-11T09:26:12.712Z,4.60
2019-03-11T09:28:43.645Z,4.60
2019-03-11T09:31:14.485Z,4.70
2019-03-11T09:33:45.904Z,4.60
2019-03-11T09:36:16.868Z,4.50
2019-03-11T09:38:47.811Z,4.40
2019-03-11T09:41:18.744Z,4.30
2019-03-11T09:43:52.273Z,4.30
2019-03-11T09:46:22.977Z,4.30
2019-03-11T09:48:53.918Z,4.30
2019-03-11T09:51:24.828Z,4.60
2019-03-11T09:53:56.304Z,5.20
2019-03-11T09:56:27.243Z,5.70
2019-03-11T09:58:58.184Z,5.90
2019-03-11T10:01:29.124Z,6.20
2019-03-11T10:04:00.059Z,6.30
2019-03-11T10:06:32.025Z,6.30
2019-03-11T10:09:02.957Z,6.30
2019-03-11T10:11:35.325Z,6.40
2019-03-11T10:14:06.249Z,6.30
2019-03-11T10:16:37.210Z,6.20
2019-03-11T10:19:08.151Z,5.80
2019-03-11T10:21:39.085Z,5.60
2019-03-11T10:24:10.941Z,5.30
2019-03-11T10:26:41.880Z,5.10
2019-03-11T10:29:12.724Z,5.00
2019-03-11T10:31:43.652Z,4.90
2019-03-11T10:34:14.976Z,4.80
2019-03-11T10:36:45.940Z,4.80
2019-03-11T10:39:16.793Z,4.80
2019-03-11T10:41:47.795Z,4.80
2019-03-11T10:44:19.133Z,4.70
2019-03-11T10:46:51.045Z,4.80
2019-03-11T10:49:22.065Z,4.80
2019-03-11T10:51:52.977Z,4.70
2019-03-11T10:54:26.271Z,4.80
2019-03-11T10:56:57.130Z,4.70
2019-03-11T10:59:28.069Z,4.60
2019-03-11T11:02:01.197Z,4.50
2019-03-11T11:04:33.085Z,4.30
2019-03-11T11:07:04.678Z,4.20
2019-03-11T11:09:37.371Z,4.20
2019-03-11T11:12:08.843Z,4.10
2019-03-11T11:14:40.097Z,4.10
2019-03-11T11:17:11.492Z,4.10
2019-03-11T11:19:43.031Z,4.10
2019-03-11T11:22:14.779Z,4.10
2019-03-11T11:24:47.456Z,4.20
2019-03-11T11:27:19.437Z,4.30
2019-03-11T11:29:51.255Z,4.50
2019-03-11T11:32:22.317Z,4.50
2019-03-11T11:34:54.412Z,4.60
2019-03-11T11:37:27.467Z,4.80
2019-03-11T11:39:59.583Z,5.10
2019-03-11T11:42:31.115Z,5.40
2019-03-11T11:45:02.491Z,5.80
2019-03-11T11:47:34.765Z,6.20
2019-03-11T11:50:09.615Z,6.10
2019-03-11T11:52:40.908Z,5.90
2019-03-11T11:55:13.087Z,5.70
2019-03-11T11:57:44.432Z,5.90
2019-03-11T12:00:22.098Z,5.60
2019-03-11T12:02:53.502Z,5.40
2019-03-11T12:05:24.608Z,5.30
2019-03-11T12:07:55.932Z,5.30
2019-03-11T12:10:29.498Z,5.20
2019-03-11T12:13:01.906Z,5.40
2019-03-11T12:15:33.460Z,5.50
2019-03-11T12:18:04.706Z,5.50
2019-03-11T12:20:36.289Z,5.50
2019-03-11T12:23:07.402Z,5.30
2019-03-11T12:25:39.057Z,5.10
2019-03-11T12:28:10.733Z,5.00
2019-03-11T12:30:42.225Z,4.90
2019-03-11T12:33:13.643Z,5.00
2019-03-11T12:35:44.754Z,5.10
2019-03-11T12:38:16.083Z,5.10
2019-03-11T12:40:47.640Z,5.10
2019-03-11T12:43:18.967Z,5.10
2019-03-11T12:45:50.288Z,5.10
2019-03-11T12:48:21.518Z,5.10
2019-03-11T12:50:52.661Z,5.10
2019-03-11T12:53:23.878Z,5.10
2019-03-11T12:55:55.215Z,5.20
2019-03-11T12:58:28.136Z,5.30
2019-03-11T13:01:00.119Z,5.90
2019-03-11T13:03:31.696Z,6.20
2019-03-11T13:06:03.002Z,6.30
2019-03-11T13:08:34.451Z,6.50
2019-03-11T13:11:06.372Z,6.40
2019-03-11T13:13:37.952Z,6.50
2019-03-11T13:16:10.331Z,6.80
2019-03-11T13:18:42.340Z,6.90
2019-03-11T13:21:22.831Z,6.70
2019-03-11T13:23:54.450Z,6.50
2019-03-11T13:26:25.328Z,6.50
2019-03-11T13:28:56.285Z,6.80
2019-03-11T13:31:27.226Z,7.00
2019-03-11T13:33:58.026Z,7.20
2019-03-11T13:36:28.997Z,7.20
2019-03-11T13:39:00.037Z,7.30
2019-03-11T13:41:30.975Z,6.80
2019-03-11T13:44:01.911Z,6.60
2019-03-11T13:46:32.853Z,8.00
2019-03-11T13:49:04.287Z,10.00
2019-03-11T13:51:35.243Z,9.70
2019-03-11T13:54:06.396Z,8.80
2019-03-11T13:56:37.425Z,8.00
2019-03-11T13:59:08.362Z,7.20
2019-03-11T14:01:40.223Z,6.90
2019-03-11T14:04:11.159Z,6.80
2019-03-11T14:06:42.203Z,6.60
2019-03-11T14:09:14.674Z,6.40
2019-03-11T14:11:45.612Z,6.80
2019-03-11T14:14:16.448Z,6.70
2019-03-11T14:16:47.384Z,6.50
2019-03-11T14:19:20.750Z,6.30
2019-03-11T14:21:55.212Z,6.20
2019-03-11T14:24:24.190Z,6.00
2019-03-11T14:26:55.130Z,6.00
2019-03-11T14:29:27.439Z,5.90
2019-03-11T14:31:58.341Z,6.00
2019-03-11T14:34:30.219Z,6.70
2019-03-11T14:37:01.240Z,7.40
2019-03-11T14:39:32.178Z,8.10
2019-03-11T14:42:03.115Z,8.10
2019-03-11T14:44:34.054Z,7.10
2019-03-11T14:47:05.100Z,6.60
2019-03-11T14:49:36.032Z,6.50
2019-03-11T14:52:06.856Z,6.50
2019-03-11T14:54:37.807Z,6.50
2019-03-11T14:57:08.741Z,6.90
2019-03-11T14:59:39.678Z,6.80
2019-03-11T15:02:10.697Z,6.50
2019-03-11T15:04:41.657Z,7.30
2019-03-11T15:07:13.005Z,7.20
2019-03-11T15:09:51.338Z,6.90
2019-03-11T15:12:16.522Z,6.70
2019-03-11T15:14:47.457Z,6.50
2019-03-11T15:17:18.504Z,6.30
2019-03-11T15:19:49.338Z,6.20
2019-03-11T15:22:22.292Z,6.20
2019-03-11T15:24:52.995Z,6.20
2019-03-11T15:27:24.919Z,6.10
2019-03-11T15:29:55.861Z,6.10
2019-03-11T15:32:26.689Z,5.90
2019-03-11T15:34:57.632Z,5.90
2019-03-11T15:37:29.075Z,5.90
2019-03-11T15:40:00.013Z,5.80
2019-03-11T15:42:30.951Z,5.80
2019-03-11T15:45:01.890Z,5.80
2019-03-11T15:47:32.831Z,5.80
2019-03-11T15:50:04.895Z,5.80
2019-03-11T15:52:36.037Z,5.70
2019-03-11T15:55:10.318Z,5.70
2019-03-11T15:57:42.934Z,5.60
2019-03-11T16:00:16.634Z,5.40
2019-03-11T16:02:47.653Z,5.40
2019-03-11T16:05:20.020Z,5.40
2019-03-11T16:07:52.866Z,5.50
2019-03-11T16:10:24.054Z,5.50
2019-03-11T16:12:54.978Z,5.50
2019-03-11T16:15:26.052Z,5.40
2019-03-11T16:17:58.196Z,5.40
2019-03-11T16:20:29.130Z,5.30
2019-03-11T16:23:00.067Z,5.20
2019-03-11T16:25:31.029Z,5.20
2019-03-11T16:28:02.849Z,5.20
2019-03-11T16:30:33.827Z,5.20
2019-03-11T16:33:04.768Z,5.20
2019-03-11T16:35:36.834Z,5.20
2019-03-11T16:38:08.287Z,5.20
2019-03-11T16:40:39.325Z,5.20
2019-03-11T16:43:10.263Z,5.10
2019-03-11T16:45:41.200Z,5.10
2019-03-11T16:48:12.138Z,5.10
2019-03-11T16:50:43.078Z,5.00
2019-03-11T16:55:51.811Z,4.90
2019-03-11T16:58:22.750Z,4.90
2019-03-11T17:00:55.228Z,4.80
2019-03-11T17:03:32.585Z,4.80
2019-03-11T17:06:06.021Z,4.80
2019-03-11T17:08:37.479Z,4.80
2019-03-11T17:11:09.268Z,4.70
2019-03-11T17:13:41.114Z,4.60
2019-03-11T17:16:12.658Z,4.50
2019-03-11T17:18:44.133Z,4.30
2019-03-11T17:21:17.760Z,4.30
2019-03-11T17:23:49.167Z,4.20
2019-03-11T17:26:20.617Z,4.20
2019-03-11T17:28:52.195Z,4.20
2019-03-11T17:31:23.843Z,4.20
2019-03-11T17:33:55.318Z,4.20
2019-03-11T17:36:26.876Z,4.10
2019-03-11T17:39:00.107Z,4.10
2019-03-11T17:41:33.218Z,4.10
2019-03-11T17:44:04.943Z,4.10
2019-03-11T17:46:37.607Z,4.00
2019-03-11T17:49:10.389Z,4.00
2019-03-11T17:51:42.498Z,3.80
2019-03-11T17:54:14.017Z,3.80
2019-03-11T17:56:45.946Z,3.70
2019-03-11T17:59:18.504Z,3.50
2019-03-11T18:01:50.213Z,3.50
2019-03-11T18:04:23.220Z,3.50
2019-03-11T18:06:55.177Z,3.40
2019-03-11T18:12:02.788Z,3.30
2019-03-11T18:14:36.701Z,3.20
2019-03-11T18:17:12.149Z,3.20
2019-03-11T18:19:45.326Z,3.00
2019-03-11T18:22:19.029Z,2.90
2019-03-11T18:24:52.470Z,2.70
2019-03-11T18:27:24.705Z,2.60
2019-03-11T18:29:56.617Z,2.60
2019-03-11T18:32:27.898Z,2.50
2019-03-11T18:34:59.015Z,2.50
2019-03-11T18:37:31.174Z,2.40
2019-03-11T18:40:02.111Z,2.30
2019-03-11T18:42:34.836Z,2.30
2019-03-11T18:45:09.216Z,2.40
2019-03-11T18:47:42.072Z,2.30
2019-03-11T18:50:18.235Z,2.20
2019-03-11T18:52:50.551Z,2.20
2019-03-11T18:55:23.021Z,2.30
2019-03-11T18:57:56.582Z,2.40
2019-03-11T19:00:29.497Z,2.50
2019-03-11T19:03:02.436Z,2.60
2019-03-11T19:05:35.294Z,2.70
2019-03-11T19:08:10.095Z,2.80
2019-03-11T19:10:43.970Z,2.90
2019-03-11T19:13:15.808Z,2.90
2019-03-11T19:15:47.366Z,2.90
2019-03-11T19:18:19.677Z,2.90
2019-03-11T19:20:52.783Z,2.90
2019-03-11T19:23:24.771Z,2.90
2019-03-11T19:25:57.702Z,2.80
2019-03-11T19:28:30.606Z,2.80
2019-03-11T19:31:03.842Z,2.80
2019-03-11T19:33:37.865Z,3.00
2019-03-11T19:36:13.267Z,3.10
2019-03-11T19:38:45.822Z,3.00
2019-03-11T19:41:18.714Z,3.00
2019-03-11T19:43:51.470Z,3.10
2019-03-11T19:46:25.098Z,3.10
2019-03-11T19:48:57.671Z,3.00
2019-03-11T19:51:30.536Z,2.90
2019-03-11T19:54:04.309Z,2.70
2019-03-11T19:56:36.813Z,2.70
2019-03-11T19:59:09.310Z,2.60
2019-03-11T20:01:41.805Z,2.50
2019-03-11T20:04:14.328Z,2.50
2019-03-11T20:06:48.904Z,2.70
2019-03-11T20:09:21.570Z,2.80
2019-03-11T20:11:54.437Z,2.80
2019-03-11T20:14:26.823Z,2.70
2019-03-11T20:17:00.658Z,2.60
2019-03-11T20:19:33.418Z,2.60
2019-03-11T20:22:06.121Z,2.60
2019-03-11T20:24:38.592Z,2.60
2019-03-11T20:27:11.907Z,2.80
2019-03-11T20:29:43.728Z,2.80
2019-03-11T20:32:15.928Z,2.90
2019-03-11T20:34:48.987Z,3.00
2019-03-11T20:37:21.185Z,3.10
2019-03-11T20:39:52.506Z,3.10
2019-03-11T20:42:24.769Z,3.10
2019-03-11T20:44:56.891Z,3.20
2019-03-11T20:47:28.560Z,3.20
2019-03-11T20:50:01.352Z,3.20
2019-03-11T20:52:33.640Z,3.20
2019-03-11T20:55:06.927Z,3.20
2019-03-11T20:57:38.001Z,3.20
2019-03-11T21:00:20.677Z,3.30
2019-03-11T21:02:53.128Z,3.30
2019-03-11T21:05:35.511Z,3.20
2019-03-11T21:08:06.380Z,3.20
2019-03-11T21:10:38.693Z,3.20
2019-03-11T21:13:10.398Z,3.20
2019-03-11T21:15:41.332Z,3.20
2019-03-11T21:18:13.605Z,3.10
2019-03-11T21:20:44.439Z,2.90
2019-03-11T21:23:15.540Z,2.70
2019-03-11T21:25:46.609Z,2.50
2019-03-11T21:28:18.955Z,2.40
2019-03-11T21:30:49.918Z,2.20
2019-03-11T21:33:20.905Z,2.20
2019-03-11T21:35:51.815Z,2.20
2019-03-11T21:38:22.776Z,2.20
2019-03-11T21:40:53.878Z,2.30
2019-03-11T21:43:24.843Z,2.30
2019-03-11T21:45:55.757Z,2.40
2019-03-11T21:48:27.783Z,2.40
2019-03-11T21:50:58.767Z,2.40
2019-03-11T21:53:29.805Z,2.20
2019-03-11T21:56:00.768Z,2.20
2019-03-11T21:58:31.713Z,2.10
2019-03-11T22:01:02.633Z,2.10
2019-03-11T22:03:33.659Z,2.10
2019-03-11T22:06:04.602Z,2.20
2019-03-11T22:08:35.508Z,2.30
2019-03-11T22:11:07.734Z,2.40
2019-03-11T22:13:38.747Z,2.40
2019-03-11T22:16:09.901Z,2.60
2019-03-11T22:18:40.829Z,2.70
2019-03-11T22:21:11.667Z,2.80
2019-03-11T22:23:42.499Z,2.80
2019-03-11T22:26:13.311Z,2.90
2019-03-11T22:28:44.272Z,2.90
2019-03-11T22:31:15.189Z,3.00
2019-03-11T22:33:46.148Z,2.90
2019-03-11T22:36:16.979Z,3.00
2019-03-11T22:38:47.898Z,2.90
2019-03-11T22:41:18.756Z,2.90
2019-03-11T22:43:50.002Z,2.90
2019-03-11T22:46:20.941Z,2.90
2019-03-11T22:48:51.777Z,2.80
2019-03-11T22:51:22.805Z,2.70
2019-03-11T22:53:54.976Z,2.60
2019-03-11T22:56:25.923Z,2.60
2019-03-11T22:58:56.889Z,2.60
2019-03-11T23:01:27.901Z,2.60
2019-03-11T23:03:59.966Z,2.70
2019-03-11T23:06:35.820Z,2.70
2019-03-11T23:09:10.472Z,2.70
2019-03-11T23:11:41.952Z,2.70
2019-03-11T23:14:13.852Z,2.70
2019-03-11T23:16:47.860Z,2.60
2019-03-11T23:19:18.798Z,2.50
2019-03-11T23:21:50.241Z,2.40
2019-03-11T23:24:22.045Z,2.30
2019-03-11T23:26:55.184Z,2.30
2019-03-11T23:29:26.551Z,2.50
2019-03-11T23:31:57.913Z,2.40
2019-03-11T23:34:29.037Z,2.40
2019-03-11T23:37:02.206Z,2.40
2019-03-11T23:39:36.615Z,2.50
2019-03-11T23:42:08.247Z,2.50
2019-03-11T23:44:39.650Z,2.40
2019-03-11T23:47:11.922Z,2.40
2019-03-11T23:49:42.858Z,2.40
2019-03-11T23:52:13.971Z,2.40
2019-03-11T23:54:44.935Z,2.50
2019-03-11T23:57:15.848Z,2.50
2019-03-11T23:59:46.717Z,2.50
